sensor_id;sensor_type;location;lat;lon;timestamp;P1;durP1;ratioP1;P2;durP2;ratioP2
45198;SDS011;30941;46.422;18.772;2022-10-17T00:01:44;18.42;;;11.05;;
45198;SDS011;30941;46.422;18.772;2022-10-17T00:04:09;17.67;;;10.70;;
45198;SDS011;30941;46.422;18.772;2022-10-17T00:06:34;18.92;;;11.88;;
45198;SDS011;30941;46.422;18.772;2022-10-17T00:09:00;19.35;;;12.05;;
45198;SDS011;30941;46.422;18.772;2022-10-17T00:11:26;17.95;;;11.10;;
45198;SDS011;30941;46.422;18.772;2022-10-17T00:13:53;17.40;;;11.30;;
45198;SDS011;30941;46.422;18.772;2022-10-17T00:16:26;15.77;;;11.55;;
45198;SDS011;30941;46.422;18.772;2022-10-17T00:18:53;17.30;;;10.77;;
45198;SDS011;30941;46.422;18.772;2022-10-17T00:21:19;16.90;;;10.98;;
45198;SDS011;30941;46.422;18.772;2022-10-17T00:23:45;17.52;;;10.32;;
45198;SDS011;30941;46.422;18.772;2022-10-17T00:26:10;16.20;;;10.65;;
45198;SDS011;30941;46.422;18.772;2022-10-17T00:28:36;21.38;;;12.23;;
45198;SDS011;30941;46.422;18.772;2022-10-17T00:31:02;18.45;;;11.15;;
45198;SDS011;30941;46.422;18.772;2022-10-17T00:33:29;16.50;;;11.90;;
45198;SDS011;30941;46.422;18.772;2022-10-17T00:36:11;17.95;;;11.30;;
45198;SDS011;30941;46.422;18.772;2022-10-17T00:38:37;17.77;;;10.98;;
45198;SDS011;30941;46.422;18.772;2022-10-17T00:41:04;18.35;;;10.75;;
45198;SDS011;30941;46.422;18.772;2022-10-17T00:43:47;20.35;;;11.30;;
45198;SDS011;30941;46.422;18.772;2022-10-17T00:46:33;17.10;;;11.38;;
45198;SDS011;30941;46.422;18.772;2022-10-17T00:49:07;22.95;;;13.07;;
45198;SDS011;30941;46.422;18.772;2022-10-17T00:54:01;19.88;;;11.45;;
45198;SDS011;30941;46.422;18.772;2022-10-17T00:56:27;24.73;;;12.70;;
45198;SDS011;30941;46.422;18.772;2022-10-17T00:58:52;22.13;;;14.23;;
45198;SDS011;30941;46.422;18.772;2022-10-17T01:01:19;20.00;;;11.70;;
45198;SDS011;30941;46.422;18.772;2022-10-17T01:03:44;18.92;;;12.18;;
45198;SDS011;30941;46.422;18.772;2022-10-17T01:06:09;18.88;;;11.80;;
45198;SDS011;30941;46.422;18.772;2022-10-17T01:08:35;19.27;;;11.57;;
45198;SDS011;30941;46.422;18.772;2022-10-17T01:11:04;18.88;;;12.95;;
45198;SDS011;30941;46.422;18.772;2022-10-17T01:16:44;18.20;;;12.23;;
45198;SDS011;30941;46.422;18.772;2022-10-17T01:24:32;16.20;;;10.95;;
45198;SDS011;30941;46.422;18.772;2022-10-17T01:27:51;17.48;;;11.95;;
45198;SDS011;30941;46.422;18.772;2022-10-17T01:34:59;16.95;;;11.75;;
45198;SDS011;30941;46.422;18.772;2022-10-17T01:37:47;17.77;;;11.63;;
45198;SDS011;30941;46.422;18.772;2022-10-17T01:45:37;17.75;;;11.70;;
45198;SDS011;30941;46.422;18.772;2022-10-17T01:48:25;23.85;;;12.48;;
45198;SDS011;30941;46.422;18.772;2022-10-17T01:50:58;19.67;;;12.20;;
45198;SDS011;30941;46.422;18.772;2022-10-17T01:53:28;20.70;;;11.43;;
45198;SDS011;30941;46.422;18.772;2022-10-17T01:55:57;19.35;;;11.65;;
45198;SDS011;30941;46.422;18.772;2022-10-17T01:58:29;21.05;;;12.27;;
45198;SDS011;30941;46.422;18.772;2022-10-17T02:00:58;18.15;;;11.57;;
45198;SDS011;30941;46.422;18.772;2022-10-17T02:03:26;24.02;;;12.65;;
45198;SDS011;30941;46.422;18.772;2022-10-17T02:05:52;17.90;;;11.93;;
45198;SDS011;30941;46.422;18.772;2022-10-17T02:08:24;20.63;;;12.02;;
45198;SDS011;30941;46.422;18.772;2022-10-17T02:18:14;19.38;;;12.48;;
45198;SDS011;30941;46.422;18.772;2022-10-17T02:26:23;18.85;;;12.95;;
45198;SDS011;30941;46.422;18.772;2022-10-17T02:29:00;24.20;;;12.35;;
45198;SDS011;30941;46.422;18.772;2022-10-17T02:31:31;23.13;;;12.88;;
45198;SDS011;30941;46.422;18.772;2022-10-17T02:34:34;16.65;;;11.73;;
45198;SDS011;30941;46.422;18.772;2022-10-17T02:36:55;21.23;;;12.82;;
45198;SDS011;30941;46.422;18.772;2022-10-17T02:39:23;19.15;;;12.93;;
45198;SDS011;30941;46.422;18.772;2022-10-17T02:41:49;17.65;;;11.75;;
45198;SDS011;30941;46.422;18.772;2022-10-17T02:44:15;19.90;;;12.70;;
45198;SDS011;30941;46.422;18.772;2022-10-17T02:46:41;19.27;;;12.27;;
45198;SDS011;30941;46.422;18.772;2022-10-17T02:49:20;21.38;;;12.52;;
45198;SDS011;30941;46.422;18.772;2022-10-17T02:57:07;22.60;;;13.52;;
45198;SDS011;30941;46.422;18.772;2022-10-17T02:59:35;17.55;;;12.57;;
45198;SDS011;30941;46.422;18.772;2022-10-17T03:02:02;18.88;;;11.48;;
45198;SDS011;30941;46.422;18.772;2022-10-17T03:04:28;18.35;;;12.00;;
45198;SDS011;30941;46.422;18.772;2022-10-17T03:06:53;18.73;;;12.93;;
45198;SDS011;30941;46.422;18.772;2022-10-17T03:09:19;20.05;;;12.77;;
45198;SDS011;30941;46.422;18.772;2022-10-17T03:11:44;19.85;;;12.40;;
45198;SDS011;30941;46.422;18.772;2022-10-17T03:14:10;19.88;;;12.48;;
45198;SDS011;30941;46.422;18.772;2022-10-17T03:16:35;19.90;;;12.60;;
45198;SDS011;30941;46.422;18.772;2022-10-17T03:19:00;25.33;;;13.65;;
45198;SDS011;30941;46.422;18.772;2022-10-17T03:21:26;20.05;;;12.60;;
45198;SDS011;30941;46.422;18.772;2022-10-17T03:23:51;22.70;;;13.45;;
45198;SDS011;30941;46.422;18.772;2022-10-17T03:26:16;18.73;;;12.77;;
45198;SDS011;30941;46.422;18.772;2022-10-17T03:28:42;22.27;;;12.43;;
45198;SDS011;30941;46.422;18.772;2022-10-17T03:31:12;20.70;;;11.38;;
45198;SDS011;30941;46.422;18.772;2022-10-17T03:33:39;18.17;;;12.55;;
45198;SDS011;30941;46.422;18.772;2022-10-17T03:36:08;20.85;;;12.98;;
45198;SDS011;30941;46.422;18.772;2022-10-17T03:38:35;23.30;;;14.02;;
45198;SDS011;30941;46.422;18.772;2022-10-17T03:41:01;19.60;;;13.13;;
45198;SDS011;30941;46.422;18.772;2022-10-17T03:43:27;23.40;;;12.10;;
45198;SDS011;30941;46.422;18.772;2022-10-17T03:45:53;23.25;;;13.32;;
45198;SDS011;30941;46.422;18.772;2022-10-17T03:48:18;25.23;;;12.43;;
45198;SDS011;30941;46.422;18.772;2022-10-17T03:50:44;27.17;;;13.45;;
45198;SDS011;30941;46.422;18.772;2022-10-17T03:53:09;23.95;;;12.93;;
45198;SDS011;30941;46.422;18.772;2022-10-17T03:55:34;21.23;;;13.35;;
45198;SDS011;30941;46.422;18.772;2022-10-17T03:58:00;23.40;;;13.55;;
45198;SDS011;30941;46.422;18.772;2022-10-17T04:00:25;20.83;;;14.05;;
45198;SDS011;30941;46.422;18.772;2022-10-17T04:02:50;22.83;;;13.40;;
45198;SDS011;30941;46.422;18.772;2022-10-17T04:05:16;18.30;;;13.18;;
45198;SDS011;30941;46.422;18.772;2022-10-17T04:07:41;21.55;;;13.55;;
45198;SDS011;30941;46.422;18.772;2022-10-17T04:10:06;24.02;;;14.50;;
45198;SDS011;30941;46.422;18.772;2022-10-17T04:12:32;20.20;;;13.45;;
45198;SDS011;30941;46.422;18.772;2022-10-17T04:14:57;18.70;;;13.05;;
45198;SDS011;30941;46.422;18.772;2022-10-17T04:17:23;20.48;;;13.27;;
45198;SDS011;30941;46.422;18.772;2022-10-17T04:19:48;20.27;;;13.20;;
45198;SDS011;30941;46.422;18.772;2022-10-17T04:22:14;16.60;;;12.15;;
45198;SDS011;30941;46.422;18.772;2022-10-17T04:24:39;20.50;;;11.23;;
45198;SDS011;30941;46.422;18.772;2022-10-17T04:27:04;19.33;;;12.00;;
45198;SDS011;30941;46.422;18.772;2022-10-17T04:29:30;20.63;;;12.02;;
45198;SDS011;30941;46.422;18.772;2022-10-17T04:31:55;17.38;;;11.60;;
45198;SDS011;30941;46.422;18.772;2022-10-17T04:34:20;21.63;;;11.82;;
45198;SDS011;30941;46.422;18.772;2022-10-17T04:36:48;19.00;;;11.77;;
45198;SDS011;30941;46.422;18.772;2022-10-17T04:39:13;15.93;;;12.18;;
45198;SDS011;30941;46.422;18.772;2022-10-17T04:41:38;18.70;;;12.73;;
45198;SDS011;30941;46.422;18.772;2022-10-17T04:44:04;28.67;;;16.80;;
45198;SDS011;30941;46.422;18.772;2022-10-17T04:46:29;23.33;;;15.15;;
45198;SDS011;30941;46.422;18.772;2022-10-17T04:48:57;25.50;;;15.15;;
45198;SDS011;30941;46.422;18.772;2022-10-17T04:51:22;21.35;;;13.38;;
45198;SDS011;30941;46.422;18.772;2022-10-17T04:53:48;21.52;;;12.50;;
45198;SDS011;30941;46.422;18.772;2022-10-17T04:56:14;21.40;;;13.60;;
45198;SDS011;30941;46.422;18.772;2022-10-17T04:58:42;18.90;;;12.60;;
45198;SDS011;30941;46.422;18.772;2022-10-17T05:01:08;19.95;;;12.77;;
45198;SDS011;30941;46.422;18.772;2022-10-17T05:03:35;20.88;;;13.48;;
45198;SDS011;30941;46.422;18.772;2022-10-17T05:06:05;22.20;;;13.02;;
45198;SDS011;30941;46.422;18.772;2022-10-17T05:08:32;19.92;;;13.43;;
45198;SDS011;30941;46.422;18.772;2022-10-17T05:10:57;21.85;;;12.52;;
45198;SDS011;30941;46.422;18.772;2022-10-17T05:13:22;20.55;;;12.40;;
45198;SDS011;30941;46.422;18.772;2022-10-17T05:15:48;24.08;;;12.77;;
45198;SDS011;30941;46.422;18.772;2022-10-17T05:18:13;32.38;;;14.38;;
45198;SDS011;30941;46.422;18.772;2022-10-17T05:20:38;22.30;;;12.73;;
45198;SDS011;30941;46.422;18.772;2022-10-17T05:23:04;22.38;;;13.55;;
45198;SDS011;30941;46.422;18.772;2022-10-17T05:25:29;22.30;;;13.02;;
45198;SDS011;30941;46.422;18.772;2022-10-17T05:27:55;23.45;;;14.68;;
45198;SDS011;30941;46.422;18.772;2022-10-17T05:30:20;21.67;;;13.40;;
45198;SDS011;30941;46.422;18.772;2022-10-17T05:32:45;22.05;;;13.60;;
45198;SDS011;30941;46.422;18.772;2022-10-17T05:35:11;23.52;;;13.95;;
45198;SDS011;30941;46.422;18.772;2022-10-17T05:37:36;25.70;;;14.68;;
45198;SDS011;30941;46.422;18.772;2022-10-17T05:40:02;26.88;;;14.82;;
45198;SDS011;30941;46.422;18.772;2022-10-17T05:42:28;48.17;;;16.80;;
45198;SDS011;30941;46.422;18.772;2022-10-17T05:44:53;31.10;;;15.70;;
45198;SDS011;30941;46.422;18.772;2022-10-17T05:47:18;31.70;;;15.32;;
45198;SDS011;30941;46.422;18.772;2022-10-17T05:49:44;26.42;;;14.85;;
45198;SDS011;30941;46.422;18.772;2022-10-17T05:52:09;26.13;;;15.57;;
45198;SDS011;30941;46.422;18.772;2022-10-17T05:54:34;27.38;;;14.35;;
45198;SDS011;30941;46.422;18.772;2022-10-17T05:57:00;22.10;;;13.50;;
45198;SDS011;30941;46.422;18.772;2022-10-17T05:59:25;26.95;;;12.43;;
45198;SDS011;30941;46.422;18.772;2022-10-17T06:01:51;32.75;;;13.32;;
45198;SDS011;30941;46.422;18.772;2022-10-17T06:04:17;20.42;;;12.63;;
45198;SDS011;30941;46.422;18.772;2022-10-17T06:06:42;24.98;;;12.85;;
45198;SDS011;30941;46.422;18.772;2022-10-17T06:09:08;21.15;;;13.07;;
45198;SDS011;30941;46.422;18.772;2022-10-17T06:11:33;20.80;;;12.63;;
45198;SDS011;30941;46.422;18.772;2022-10-17T06:13:59;23.67;;;14.00;;
45198;SDS011;30941;46.422;18.772;2022-10-17T06:16:25;21.17;;;13.80;;
45198;SDS011;30941;46.422;18.772;2022-10-17T06:18:50;28.45;;;13.15;;
45198;SDS011;30941;46.422;18.772;2022-10-17T06:21:17;21.02;;;12.60;;
45198;SDS011;30941;46.422;18.772;2022-10-17T06:23:45;19.30;;;12.90;;
45198;SDS011;30941;46.422;18.772;2022-10-17T06:26:10;19.48;;;12.80;;
45198;SDS011;30941;46.422;18.772;2022-10-17T06:28:35;18.77;;;12.90;;
45198;SDS011;30941;46.422;18.772;2022-10-17T06:31:05;17.90;;;11.80;;
45198;SDS011;30941;46.422;18.772;2022-10-17T06:33:34;20.42;;;11.95;;
45198;SDS011;30941;46.422;18.772;2022-10-17T06:36:00;23.92;;;12.45;;
45198;SDS011;30941;46.422;18.772;2022-10-17T06:38:26;20.65;;;12.20;;
45198;SDS011;30941;46.422;18.772;2022-10-17T06:40:51;17.42;;;11.32;;
45198;SDS011;30941;46.422;18.772;2022-10-17T06:43:18;19.65;;;11.63;;
45198;SDS011;30941;46.422;18.772;2022-10-17T06:45:47;16.23;;;11.02;;
45198;SDS011;30941;46.422;18.772;2022-10-17T06:48:12;15.00;;;11.70;;
45198;SDS011;30941;46.422;18.772;2022-10-17T06:50:38;22.17;;;13.02;;
45198;SDS011;30941;46.422;18.772;2022-10-17T06:53:03;15.30;;;9.98;;
45198;SDS011;30941;46.422;18.772;2022-10-17T06:55:32;16.75;;;12.35;;
45198;SDS011;30941;46.422;18.772;2022-10-17T06:57:57;18.85;;;11.52;;
45198;SDS011;30941;46.422;18.772;2022-10-17T07:00:22;17.38;;;10.85;;
45198;SDS011;30941;46.422;18.772;2022-10-17T07:02:50;16.60;;;11.40;;
45198;SDS011;30941;46.422;18.772;2022-10-17T07:05:16;18.52;;;12.18;;
45198;SDS011;30941;46.422;18.772;2022-10-17T07:07:43;18.05;;;12.20;;
45198;SDS011;30941;46.422;18.772;2022-10-17T07:10:08;16.10;;;11.80;;
45198;SDS011;30941;46.422;18.772;2022-10-17T07:12:34;22.40;;;11.30;;
45198;SDS011;30941;46.422;18.772;2022-10-17T07:14:59;18.77;;;11.55;;
45198;SDS011;30941;46.422;18.772;2022-10-17T07:17:24;16.27;;;11.23;;
45198;SDS011;30941;46.422;18.772;2022-10-17T07:19:50;16.83;;;10.93;;
45198;SDS011;30941;46.422;18.772;2022-10-17T07:22:15;17.08;;;11.20;;
45198;SDS011;30941;46.422;18.772;2022-10-17T07:24:41;18.67;;;10.90;;
45198;SDS011;30941;46.422;18.772;2022-10-17T07:27:06;16.50;;;11.05;;
45198;SDS011;30941;46.422;18.772;2022-10-17T07:29:31;15.88;;;10.38;;
45198;SDS011;30941;46.422;18.772;2022-10-17T07:31:57;16.98;;;11.35;;
45198;SDS011;30941;46.422;18.772;2022-10-17T07:34:22;16.77;;;10.95;;
45198;SDS011;30941;46.422;18.772;2022-10-17T07:36:51;17.45;;;10.68;;
45198;SDS011;30941;46.422;18.772;2022-10-17T07:39:17;17.50;;;11.10;;
45198;SDS011;30941;46.422;18.772;2022-10-17T07:41:42;16.65;;;10.77;;
45198;SDS011;30941;46.422;18.772;2022-10-17T07:44:08;18.13;;;11.38;;
45198;SDS011;30941;46.422;18.772;2022-10-17T07:46:33;16.85;;;10.70;;
45198;SDS011;30941;46.422;18.772;2022-10-17T07:48:58;16.83;;;10.77;;
45198;SDS011;30941;46.422;18.772;2022-10-17T07:51:24;15.10;;;10.23;;
45198;SDS011;30941;46.422;18.772;2022-10-17T07:53:49;16.30;;;11.07;;
45198;SDS011;30941;46.422;18.772;2022-10-17T07:56:14;17.90;;;10.65;;
45198;SDS011;30941;46.422;18.772;2022-10-17T07:58:40;14.75;;;9.63;;
45198;SDS011;30941;46.422;18.772;2022-10-17T08:01:06;15.73;;;10.27;;
45198;SDS011;30941;46.422;18.772;2022-10-17T08:03:34;15.35;;;9.32;;
45198;SDS011;30941;46.422;18.772;2022-10-17T08:06:00;13.63;;;8.95;;
45198;SDS011;30941;46.422;18.772;2022-10-17T08:08:26;16.50;;;9.40;;
45198;SDS011;30941;46.422;18.772;2022-10-17T08:10:53;13.68;;;8.82;;
45198;SDS011;30941;46.422;18.772;2022-10-17T08:13:19;14.55;;;9.20;;
45198;SDS011;30941;46.422;18.772;2022-10-17T08:15:45;13.00;;;8.35;;
45198;SDS011;30941;46.422;18.772;2022-10-17T08:18:12;13.23;;;8.68;;
45198;SDS011;30941;46.422;18.772;2022-10-17T08:20:38;13.73;;;9.45;;
45198;SDS011;30941;46.422;18.772;2022-10-17T08:23:04;11.88;;;7.88;;
45198;SDS011;30941;46.422;18.772;2022-10-17T08:25:29;14.55;;;8.40;;
45198;SDS011;30941;46.422;18.772;2022-10-17T08:27:54;19.73;;;9.57;;
45198;SDS011;30941;46.422;18.772;2022-10-17T08:30:20;16.05;;;8.00;;
45198;SDS011;30941;46.422;18.772;2022-10-17T08:32:45;11.60;;;8.25;;
45198;SDS011;30941;46.422;18.772;2022-10-17T08:35:10;10.70;;;8.32;;
45198;SDS011;30941;46.422;18.772;2022-10-17T08:37:36;13.00;;;7.88;;
45198;SDS011;30941;46.422;18.772;2022-10-17T08:40:02;11.48;;;7.90;;
45198;SDS011;30941;46.422;18.772;2022-10-17T08:42:31;11.55;;;7.25;;
45198;SDS011;30941;46.422;18.772;2022-10-17T08:45:23;13.85;;;8.15;;
45198;SDS011;30941;46.422;18.772;2022-10-17T08:48:16;12.00;;;7.53;;
45198;SDS011;30941;46.422;18.772;2022-10-17T08:50:57;10.48;;;7.07;;
45198;SDS011;30941;46.422;18.772;2022-10-17T08:53:26;14.30;;;8.32;;
45198;SDS011;30941;46.422;18.772;2022-10-17T08:55:55;11.82;;;7.55;;
45198;SDS011;30941;46.422;18.772;2022-10-17T08:58:23;11.63;;;7.95;;
45198;SDS011;30941;46.422;18.772;2022-10-17T09:01:00;10.35;;;7.10;;
45198;SDS011;30941;46.422;18.772;2022-10-17T09:03:32;14.45;;;7.90;;
45198;SDS011;30941;46.422;18.772;2022-10-17T09:14:18;10.60;;;6.40;;
45198;SDS011;30941;46.422;18.772;2022-10-17T09:16:55;12.77;;;7.38;;
45198;SDS011;30941;46.422;18.772;2022-10-17T09:19:25;12.68;;;5.90;;
45198;SDS011;30941;46.422;18.772;2022-10-17T09:22:13;11.63;;;6.45;;
45198;SDS011;30941;46.422;18.772;2022-10-17T09:24:50;10.02;;;6.57;;
45198;SDS011;30941;46.422;18.772;2022-10-17T09:30:20;9.02;;;6.70;;
45198;SDS011;30941;46.422;18.772;2022-10-17T09:32:46;9.05;;;5.80;;
45198;SDS011;30941;46.422;18.772;2022-10-17T09:35:15;11.90;;;5.65;;
45198;SDS011;30941;46.422;18.772;2022-10-17T09:37:40;10.27;;;5.65;;
45198;SDS011;30941;46.422;18.772;2022-10-17T09:40:06;9.55;;;6.00;;
45198;SDS011;30941;46.422;18.772;2022-10-17T09:42:39;9.32;;;6.55;;
45198;SDS011;30941;46.422;18.772;2022-10-17T09:45:13;8.77;;;5.80;;
45198;SDS011;30941;46.422;18.772;2022-10-17T09:47:46;8.43;;;5.85;;
45198;SDS011;30941;46.422;18.772;2022-10-17T09:50:19;8.77;;;5.50;;
45198;SDS011;30941;46.422;18.772;2022-10-17T09:52:47;9.77;;;5.70;;
45198;SDS011;30941;46.422;18.772;2022-10-17T09:55:16;12.80;;;5.18;;
45198;SDS011;30941;46.422;18.772;2022-10-17T09:58:06;9.10;;;5.65;;
45198;SDS011;30941;46.422;18.772;2022-10-17T10:00:32;8.20;;;4.88;;
45198;SDS011;30941;46.422;18.772;2022-10-17T10:05:55;8.43;;;5.00;;
45198;SDS011;30941;46.422;18.772;2022-10-17T10:08:22;9.52;;;5.28;;
45198;SDS011;30941;46.422;18.772;2022-10-17T10:10:56;7.53;;;4.63;;
45198;SDS011;30941;46.422;18.772;2022-10-17T10:13:23;8.80;;;4.97;;
45198;SDS011;30941;46.422;18.772;2022-10-17T10:15:51;7.15;;;4.63;;
45198;SDS011;30941;46.422;18.772;2022-10-17T10:21:02;23.08;;;4.82;;
45198;SDS011;30941;46.422;18.772;2022-10-17T10:23:38;7.28;;;4.10;;
45198;SDS011;30941;46.422;18.772;2022-10-17T10:26:23;7.97;;;4.50;;
45198;SDS011;30941;46.422;18.772;2022-10-17T10:28:51;7.13;;;4.25;;
45198;SDS011;30941;46.422;18.772;2022-10-17T10:31:23;9.65;;;4.65;;
45198;SDS011;30941;46.422;18.772;2022-10-17T10:33:52;12.07;;;4.68;;
45198;SDS011;30941;46.422;18.772;2022-10-17T10:36:17;7.10;;;3.97;;
45198;SDS011;30941;46.422;18.772;2022-10-17T10:38:50;7.50;;;4.20;;
45198;SDS011;30941;46.422;18.772;2022-10-17T10:41:17;8.40;;;4.05;;
45198;SDS011;30941;46.422;18.772;2022-10-17T10:43:44;9.75;;;4.18;;
45198;SDS011;30941;46.422;18.772;2022-10-17T10:46:18;5.53;;;3.88;;
45198;SDS011;30941;46.422;18.772;2022-10-17T10:48:55;5.82;;;4.25;;
45198;SDS011;30941;46.422;18.772;2022-10-17T10:51:28;6.57;;;3.53;;
45198;SDS011;30941;46.422;18.772;2022-10-17T10:54:15;5.60;;;3.80;;
45198;SDS011;30941;46.422;18.772;2022-10-17T10:56:51;6.57;;;3.83;;
45198;SDS011;30941;46.422;18.772;2022-10-17T11:04:47;7.50;;;3.90;;
45198;SDS011;30941;46.422;18.772;2022-10-17T11:07:15;6.95;;;3.83;;
45198;SDS011;30941;46.422;18.772;2022-10-17T11:10:01;6.45;;;4.30;;
45198;SDS011;30941;46.422;18.772;2022-10-17T11:13:05;7.25;;;4.93;;
45198;SDS011;30941;46.422;18.772;2022-10-17T11:18:09;8.68;;;4.00;;
45198;SDS011;30941;46.422;18.772;2022-10-17T11:23:08;6.38;;;4.18;;
45198;SDS011;30941;46.422;18.772;2022-10-17T11:25:39;5.18;;;3.88;;
45198;SDS011;30941;46.422;18.772;2022-10-17T11:28:11;5.63;;;3.88;;
45198;SDS011;30941;46.422;18.772;2022-10-17T11:30:43;7.65;;;4.63;;
45198;SDS011;30941;46.422;18.772;2022-10-17T11:33:09;5.75;;;4.05;;
45198;SDS011;30941;46.422;18.772;2022-10-17T11:35:39;8.52;;;3.97;;
45198;SDS011;30941;46.422;18.772;2022-10-17T11:38:16;5.30;;;4.00;;
45198;SDS011;30941;46.422;18.772;2022-10-17T11:40:52;9.18;;;4.10;;
45198;SDS011;30941;46.422;18.772;2022-10-17T11:43:27;6.32;;;3.85;;
45198;SDS011;30941;46.422;18.772;2022-10-17T11:46:00;7.80;;;4.32;;
45198;SDS011;30941;46.422;18.772;2022-10-17T11:48:30;9.82;;;4.03;;
45198;SDS011;30941;46.422;18.772;2022-10-17T11:51:08;6.32;;;4.28;;
45198;SDS011;30941;46.422;18.772;2022-10-17T11:54:18;6.88;;;3.42;;
45198;SDS011;30941;46.422;18.772;2022-10-17T12:02:13;6.43;;;3.88;;
45198;SDS011;30941;46.422;18.772;2022-10-17T12:10:36;7.97;;;4.15;;
45198;SDS011;30941;46.422;18.772;2022-10-17T12:16:35;10.05;;;3.50;;
45198;SDS011;30941;46.422;18.772;2022-10-17T12:18:43;5.43;;;3.65;;
45198;SDS011;30941;46.422;18.772;2022-10-17T12:21:09;5.95;;;3.58;;
45198;SDS011;30941;46.422;18.772;2022-10-17T12:23:34;6.55;;;3.95;;
45198;SDS011;30941;46.422;18.772;2022-10-17T12:26:03;6.15;;;3.80;;
45198;SDS011;30941;46.422;18.772;2022-10-17T12:28:31;18.60;;;4.15;;
45198;SDS011;30941;46.422;18.772;2022-10-17T12:31:01;6.40;;;3.67;;
45198;SDS011;30941;46.422;18.772;2022-10-17T12:33:35;8.23;;;3.47;;
45198;SDS011;30941;46.422;18.772;2022-10-17T12:38:43;7.80;;;3.60;;
45198;SDS011;30941;46.422;18.772;2022-10-17T12:41:09;6.35;;;3.92;;
45198;SDS011;30941;46.422;18.772;2022-10-17T12:43:35;7.18;;;3.35;;
45198;SDS011;30941;46.422;18.772;2022-10-17T12:46:07;7.05;;;3.55;;
45198;SDS011;30941;46.422;18.772;2022-10-17T12:50:59;14.07;;;4.00;;
45198;SDS011;30941;46.422;18.772;2022-10-17T12:53:52;6.18;;;3.78;;
45198;SDS011;30941;46.422;18.772;2022-10-17T12:56:18;4.88;;;3.55;;
45198;SDS011;30941;46.422;18.772;2022-10-17T12:58:46;6.80;;;3.63;;
45198;SDS011;30941;46.422;18.772;2022-10-17T13:01:15;7.05;;;3.70;;
45198;SDS011;30941;46.422;18.772;2022-10-17T13:03:43;6.50;;;3.65;;
45198;SDS011;30941;46.422;18.772;2022-10-17T13:06:13;10.45;;;3.72;;
45198;SDS011;30941;46.422;18.772;2022-10-17T13:08:43;7.32;;;3.83;;
45198;SDS011;30941;46.422;18.772;2022-10-17T13:11:09;5.93;;;3.63;;
45198;SDS011;30941;46.422;18.772;2022-10-17T13:13:41;6.68;;;3.67;;
45198;SDS011;30941;46.422;18.772;2022-10-17T13:16:25;7.82;;;3.55;;
45198;SDS011;30941;46.422;18.772;2022-10-17T13:18:55;5.57;;;3.63;;
45198;SDS011;30941;46.422;18.772;2022-10-17T13:21:20;6.43;;;3.88;;
45198;SDS011;30941;46.422;18.772;2022-10-17T13:23:45;8.40;;;4.13;;
45198;SDS011;30941;46.422;18.772;2022-10-17T13:26:19;8.45;;;3.58;;
45198;SDS011;30941;46.422;18.772;2022-10-17T13:29:26;7.82;;;3.72;;
45198;SDS011;30941;46.422;18.772;2022-10-17T13:31:50;7.55;;;3.40;;
45198;SDS011;30941;46.422;18.772;2022-10-17T13:34:18;5.85;;;3.78;;
45198;SDS011;30941;46.422;18.772;2022-10-17T13:36:51;5.30;;;3.40;;
45198;SDS011;30941;46.422;18.772;2022-10-17T13:39:19;8.32;;;3.83;;
45198;SDS011;30941;46.422;18.772;2022-10-17T13:41:46;9.57;;;4.10;;
45198;SDS011;30941;46.422;18.772;2022-10-17T13:44:13;6.80;;;3.88;;
45198;SDS011;30941;46.422;18.772;2022-10-17T13:46:41;6.43;;;3.97;;
45198;SDS011;30941;46.422;18.772;2022-10-17T13:49:18;12.50;;;4.13;;
45198;SDS011;30941;46.422;18.772;2022-10-17T13:51:50;8.57;;;3.70;;
45198;SDS011;30941;46.422;18.772;2022-10-17T13:54:18;8.60;;;4.30;;
45198;SDS011;30941;46.422;18.772;2022-10-17T13:56:55;6.57;;;3.80;;
45198;SDS011;30941;46.422;18.772;2022-10-17T13:59:24;15.23;;;4.70;;
45198;SDS011;30941;46.422;18.772;2022-10-17T14:01:52;7.00;;;3.83;;
45198;SDS011;30941;46.422;18.772;2022-10-17T14:04:19;9.00;;;3.72;;
45198;SDS011;30941;46.422;18.772;2022-10-17T14:06:44;9.02;;;3.55;;
45198;SDS011;30941;46.422;18.772;2022-10-17T14:11:55;9.88;;;4.13;;
45198;SDS011;30941;46.422;18.772;2022-10-17T14:14:28;8.13;;;4.47;;
45198;SDS011;30941;46.422;18.772;2022-10-17T14:16:53;7.65;;;3.83;;
45198;SDS011;30941;46.422;18.772;2022-10-17T14:19:32;6.15;;;3.97;;
45198;SDS011;30941;46.422;18.772;2022-10-17T14:22:15;12.27;;;4.05;;
45198;SDS011;30941;46.422;18.772;2022-10-17T14:24:44;7.60;;;3.92;;
45198;SDS011;30941;46.422;18.772;2022-10-17T14:32:51;6.97;;;3.97;;
45198;SDS011;30941;46.422;18.772;2022-10-17T14:35:19;11.80;;;4.38;;
45198;SDS011;30941;46.422;18.772;2022-10-17T14:37:45;7.32;;;3.75;;
45198;SDS011;30941;46.422;18.772;2022-10-17T14:40:16;8.30;;;4.55;;
45198;SDS011;30941;46.422;18.772;2022-10-17T14:42:43;7.00;;;4.40;;
45198;SDS011;30941;46.422;18.772;2022-10-17T14:45:13;6.43;;;3.92;;
45198;SDS011;30941;46.422;18.772;2022-10-17T14:47:41;7.75;;;4.15;;
45198;SDS011;30941;46.422;18.772;2022-10-17T14:50:19;10.18;;;4.60;;
45198;SDS011;30941;46.422;18.772;2022-10-17T14:52:59;7.28;;;4.47;;
45198;SDS011;30941;46.422;18.772;2022-10-17T14:55:28;13.70;;;4.85;;
45198;SDS011;30941;46.422;18.772;2022-10-17T14:57:54;9.60;;;4.45;;
45198;SDS011;30941;46.422;18.772;2022-10-17T15:00:20;10.40;;;4.80;;
45198;SDS011;30941;46.422;18.772;2022-10-17T15:02:47;6.70;;;4.20;;
45198;SDS011;30941;46.422;18.772;2022-10-17T15:05:13;9.90;;;5.05;;
45198;SDS011;30941;46.422;18.772;2022-10-17T15:07:39;7.88;;;4.40;;
45198;SDS011;30941;46.422;18.772;2022-10-17T15:10:05;7.15;;;4.70;;
45198;SDS011;30941;46.422;18.772;2022-10-17T15:12:30;11.10;;;4.82;;
45198;SDS011;30941;46.422;18.772;2022-10-17T15:14:56;14.80;;;4.97;;
45198;SDS011;30941;46.422;18.772;2022-10-17T15:17:23;14.38;;;4.55;;
45198;SDS011;30941;46.422;18.772;2022-10-17T15:19:50;11.23;;;4.28;;
45198;SDS011;30941;46.422;18.772;2022-10-17T15:22:15;8.65;;;5.28;;
45198;SDS011;30941;46.422;18.772;2022-10-17T15:24:42;10.05;;;4.47;;
45198;SDS011;30941;46.422;18.772;2022-10-17T15:27:12;9.95;;;4.60;;
45198;SDS011;30941;46.422;18.772;2022-10-17T15:29:42;10.63;;;5.55;;
45198;SDS011;30941;46.422;18.772;2022-10-17T15:32:07;9.05;;;4.90;;
45198;SDS011;30941;46.422;18.772;2022-10-17T15:34:33;11.35;;;7.25;;
45198;SDS011;30941;46.422;18.772;2022-10-17T15:36:58;11.43;;;5.53;;
45198;SDS011;30941;46.422;18.772;2022-10-17T15:39:23;10.82;;;4.00;;
45198;SDS011;30941;46.422;18.772;2022-10-17T15:41:49;10.48;;;5.50;;
45198;SDS011;30941;46.422;18.772;2022-10-17T15:44:14;9.73;;;5.43;;
45198;SDS011;30941;46.422;18.772;2022-10-17T15:46:40;14.68;;;8.50;;
45198;SDS011;30941;46.422;18.772;2022-10-17T15:49:10;35.83;;;16.63;;
45198;SDS011;30941;46.422;18.772;2022-10-17T15:51:37;15.00;;;6.40;;
45198;SDS011;30941;46.422;18.772;2022-10-17T15:54:02;14.50;;;6.03;;
45198;SDS011;30941;46.422;18.772;2022-10-17T15:56:30;13.90;;;5.85;;
45198;SDS011;30941;46.422;18.772;2022-10-17T15:59:00;10.18;;;6.00;;
45198;SDS011;30941;46.422;18.772;2022-10-17T16:01:28;14.07;;;5.22;;
45198;SDS011;30941;46.422;18.772;2022-10-17T16:03:54;13.57;;;4.60;;